sensor_id;sensor_type;location;lat;lon;timestamp;P1;durP1;ratioP1;P2;durP2;ratioP2
12410;SDS011;6269;51.044;13.692;2023-04-22T00:00:35;18.80;;;12.00;;
12410;SDS011;6269;51.044;13.692;2023-04-22T00:03:34;15.32;;;10.98;;
12410;SDS011;6269;51.044;13.692;2023-04-22T00:09:17;16.55;;;11.90;;
12410;SDS011;6269;51.044;13.692;2023-04-22T00:11:57;14.77;;;11.30;;
12410;SDS011;6269;51.044;13.692;2023-04-22T00:14:42;15.48;;;10.80;;
12410;SDS011;6269;51.044;13.692;2023-04-22T00:17:21;16.42;;;10.45;;
12410;SDS011;6269;51.044;13.692;2023-04-22T00:19:57;19.90;;;10.90;;
12410;SDS011;6269;51.044;13.692;2023-04-22T00:22:40;18.90;;;10.90;;
12410;SDS011;6269;51.044;13.692;2023-04-22T00:25:19;15.35;;;10.35;;
12410;SDS011;6269;51.044;13.692;2023-04-22T00:27:56;13.75;;;10.43;;
12410;SDS011;6269;51.044;13.692;2023-04-22T00:30:33;15.90;;;10.18;;
12410;SDS011;6269;51.044;13.692;2023-04-22T00:33:15;19.08;;;10.55;;
12410;SDS011;6269;51.044;13.692;2023-04-22T00:35:59;14.93;;;9.52;;
12410;SDS011;6269;51.044;13.692;2023-04-22T00:38:38;14.02;;;9.93;;
12410;SDS011;6269;51.044;13.692;2023-04-22T00:41:17;13.50;;;10.05;;
12410;SDS011;6269;51.044;13.692;2023-04-22T00:43:55;11.25;;;9.45;;
12410;SDS011;6269;51.044;13.692;2023-04-22T00:46:38;13.60;;;10.10;;
12410;SDS011;6269;51.044;13.692;2023-04-22T00:49:17;14.35;;;10.05;;
12410;SDS011;6269;51.044;13.692;2023-04-22T00:51:57;12.85;;;10.35;;
12410;SDS011;6269;51.044;13.692;2023-04-22T00:54:33;12.85;;;10.07;;
12410;SDS011;6269;51.044;13.692;2023-04-22T00:57:10;14.85;;;10.77;;
12410;SDS011;6269;51.044;13.692;2023-04-22T00:59:49;16.42;;;9.90;;
12410;SDS011;6269;51.044;13.692;2023-04-22T01:02:27;11.93;;;9.85;;
12410;SDS011;6269;51.044;13.692;2023-04-22T01:05:06;12.27;;;10.07;;
12410;SDS011;6269;51.044;13.692;2023-04-22T01:07:43;13.35;;;10.18;;
12410;SDS011;6269;51.044;13.692;2023-04-22T01:10:23;14.95;;;10.38;;
12410;SDS011;6269;51.044;13.692;2023-04-22T01:13:02;16.13;;;10.52;;
12410;SDS011;6269;51.044;13.692;2023-04-22T01:15:41;15.20;;;10.13;;
12410;SDS011;6269;51.044;13.692;2023-04-22T01:18:18;12.77;;;10.73;;
12410;SDS011;6269;51.044;13.692;2023-04-22T01:21:00;16.00;;;10.43;;
12410;SDS011;6269;51.044;13.692;2023-04-22T01:23:39;12.15;;;9.43;;
12410;SDS011;6269;51.044;13.692;2023-04-22T01:26:18;14.30;;;10.10;;
12410;SDS011;6269;51.044;13.692;2023-04-22T01:28:54;13.90;;;10.38;;
12410;SDS011;6269;51.044;13.692;2023-04-22T01:31:32;12.60;;;10.27;;
12410;SDS011;6269;51.044;13.692;2023-04-22T01:36:53;14.75;;;9.98;;
12410;SDS011;6269;51.044;13.692;2023-04-22T01:39:32;12.75;;;10.15;;
12410;SDS011;6269;51.044;13.692;2023-04-22T01:42:12;13.73;;;10.13;;
12410;SDS011;6269;51.044;13.692;2023-04-22T01:44:53;12.88;;;10.25;;
12410;SDS011;6269;51.044;13.692;2023-04-22T01:47:30;16.40;;;10.05;;
12410;SDS011;6269;51.044;13.692;2023-04-22T01:50:07;15.80;;;10.25;;
12410;SDS011;6269;51.044;13.692;2023-04-22T01:52:45;13.48;;;10.32;;
12410;SDS011;6269;51.044;13.692;2023-04-22T01:55:23;17.33;;;10.88;;
12410;SDS011;6269;51.044;13.692;2023-04-22T01:58:04;13.73;;;10.70;;
12410;SDS011;6269;51.044;13.692;2023-04-22T02:00:41;13.68;;;11.18;;
12410;SDS011;6269;51.044;13.692;2023-04-22T02:03:20;13.55;;;10.43;;
12410;SDS011;6269;51.044;13.692;2023-04-22T02:05:59;16.30;;;11.10;;
12410;SDS011;6269;51.044;13.692;2023-04-22T02:08:37;14.82;;;10.80;;
12410;SDS011;6269;51.044;13.692;2023-04-22T02:11:21;13.73;;;11.07;;
12410;SDS011;6269;51.044;13.692;2023-04-22T02:14:04;14.13;;;11.57;;
12410;SDS011;6269;51.044;13.692;2023-04-22T02:16:45;13.73;;;11.05;;
12410;SDS011;6269;51.044;13.692;2023-04-22T02:19:23;12.98;;;10.65;;
12410;SDS011;6269;51.044;13.692;2023-04-22T02:21:59;12.93;;;11.05;;
12410;SDS011;6269;51.044;13.692;2023-04-22T02:24:37;14.05;;;11.20;;
12410;SDS011;6269;51.044;13.692;2023-04-22T02:27:19;12.55;;;10.70;;
12410;SDS011;6269;51.044;13.692;2023-04-22T02:29:55;19.85;;;11.93;;
12410;SDS011;6269;51.044;13.692;2023-04-22T02:32:32;12.68;;;11.07;;
12410;SDS011;6269;51.044;13.692;2023-04-22T02:35:10;13.00;;;11.20;;
12410;SDS011;6269;51.044;13.692;2023-04-22T02:37:46;16.10;;;11.20;;
12410;SDS011;6269;51.044;13.692;2023-04-22T02:40:26;15.52;;;11.98;;
12410;SDS011;6269;51.044;13.692;2023-04-22T02:43:07;13.60;;;11.93;;
12410;SDS011;6269;51.044;13.692;2023-04-22T02:45:43;15.60;;;12.45;;
12410;SDS011;6269;51.044;13.692;2023-04-22T02:48:21;14.13;;;12.23;;
12410;SDS011;6269;51.044;13.692;2023-04-22T02:50:59;14.27;;;11.88;;
12410;SDS011;6269;51.044;13.692;2023-04-22T02:53:38;13.60;;;11.98;;
12410;SDS011;6269;51.044;13.692;2023-04-22T02:56:14;13.93;;;11.63;;
12410;SDS011;6269;51.044;13.692;2023-04-22T02:58:55;13.13;;;11.63;;
12410;SDS011;6269;51.044;13.692;2023-04-22T03:01:33;13.90;;;11.57;;
12410;SDS011;6269;51.044;13.692;2023-04-22T03:04:14;15.05;;;11.70;;
12410;SDS011;6269;51.044;13.692;2023-04-22T03:06:53;17.67;;;12.77;;
12410;SDS011;6269;51.044;13.692;2023-04-22T03:09:30;15.07;;;11.90;;
12410;SDS011;6269;51.044;13.692;2023-04-22T03:12:06;16.70;;;12.05;;
12410;SDS011;6269;51.044;13.692;2023-04-22T03:14:47;16.55;;;12.15;;
12410;SDS011;6269;51.044;13.692;2023-04-22T03:17:25;13.75;;;12.07;;
12410;SDS011;6269;51.044;13.692;2023-04-22T03:20:03;14.77;;;12.68;;
12410;SDS011;6269;51.044;13.692;2023-04-22T03:22:40;14.65;;;11.90;;
12410;SDS011;6269;51.044;13.692;2023-04-22T03:25:18;15.55;;;12.20;;
12410;SDS011;6269;51.044;13.692;2023-04-22T03:28:03;15.90;;;12.43;;
12410;SDS011;6269;51.044;13.692;2023-04-22T03:30:46;15.65;;;12.82;;
12410;SDS011;6269;51.044;13.692;2023-04-22T03:36:25;14.88;;;12.43;;
12410;SDS011;6269;51.044;13.692;2023-04-22T03:39:03;15.05;;;13.07;;
12410;SDS011;6269;51.044;13.692;2023-04-22T03:41:39;19.23;;;13.13;;
12410;SDS011;6269;51.044;13.692;2023-04-22T03:44:15;14.45;;;12.05;;
12410;SDS011;6269;51.044;13.692;2023-04-22T03:46:56;16.00;;;13.20;;
12410;SDS011;6269;51.044;13.692;2023-04-22T03:49:38;15.40;;;13.23;;
12410;SDS011;6269;51.044;13.692;2023-04-22T03:52:14;15.88;;;13.23;;
12410;SDS011;6269;51.044;13.692;2023-04-22T03:54:58;14.70;;;12.95;;
12410;SDS011;6269;51.044;13.692;2023-04-22T03:57:35;17.45;;;13.25;;
12410;SDS011;6269;51.044;13.692;2023-04-22T04:00:13;16.05;;;13.38;;
12410;SDS011;6269;51.044;13.692;2023-04-22T04:03:01;17.50;;;13.25;;
12410;SDS011;6269;51.044;13.692;2023-04-22T04:05:40;16.88;;;12.88;;
12410;SDS011;6269;51.044;13.692;2023-04-22T04:08:19;17.00;;;14.18;;
12410;SDS011;6269;51.044;13.692;2023-04-22T04:10:56;18.08;;;13.68;;
12410;SDS011;6269;51.044;13.692;2023-04-22T04:13:32;19.08;;;14.10;;
12410;SDS011;6269;51.044;13.692;2023-04-22T04:16:22;15.68;;;13.57;;
12410;SDS011;6269;51.044;13.692;2023-04-22T04:19:08;16.63;;;13.38;;
12410;SDS011;6269;51.044;13.692;2023-04-22T04:21:47;15.35;;;13.65;;
12410;SDS011;6269;51.044;13.692;2023-04-22T04:24:24;15.65;;;13.25;;
12410;SDS011;6269;51.044;13.692;2023-04-22T04:27:07;20.98;;;13.85;;
12410;SDS011;6269;51.044;13.692;2023-04-22T04:29:51;16.02;;;13.70;;
12410;SDS011;6269;51.044;13.692;2023-04-22T04:32:40;15.73;;;13.55;;
12410;SDS011;6269;51.044;13.692;2023-04-22T04:35:24;17.27;;;13.75;;
